Time;durP1;ratioP1;P1;durP2;ratioP2;P2;SDS_P1;SDS_P2;PMS_P1;PMS_P2;Temp;Humidity;BMP_temperature;BMP_pressure;BME280_temperature;BME280_humidity;BME280_pressure;Samples;Min_cycle;Max_cycle;Signal;HPM_P1;HPM_P2
2022/03/26 00:02:03;;;;;;;8.43;1.48;;;22.00;56.20;;;;;;5009997;28;20029;-69
2022/03/26 00:04:32;;;;;;;5.78;1.25;;;22.00;56.20;;;;;;5008527;28;20025;-70
2022/03/26 00:06:58;;;;;;;7.60;2.08;;;22.00;56.20;;;;;;5007513;28;20077;-70
2022/03/26 00:09:25;;;;;;;3.05;0.90;;;22.00;56.30;;;;;;5008504;28;20028;-69
2022/03/26 00:11:51;;;;;;;4.88;1.20;;;21.90;56.30;;;;;;5009392;28;20113;-69
2022/03/26 00:14:18;;;;;;;6.70;1.88;;;21.90;56.40;;;;;;5010539;28;20022;-69
2022/03/26 00:16:44;;;;;;;7.70;1.80;;;21.90;56.40;;;;;;5006848;28;20489;-70
2022/03/26 00:19:10;;;;;;;4.60;1.45;;;21.90;56.40;;;;;;5010713;28;20025;-69
2022/03/26 00:21:37;;;;;;;7.60;1.63;;;21.90;56.40;;;;;;5007692;28;20595;-70
2022/03/26 00:24:03;;;;;;;7.80;1.52;;;21.90;56.50;;;;;;5007322;28;20022;-70
2022/03/26 00:26:30;;;;;;;4.97;1.30;;;21.90;56.60;;;;;;5008474;28;20026;-70
2022/03/26 00:28:56;;;;;;;5.53;1.52;;;21.90;56.70;;;;;;5006404;28;20028;-70
2022/03/26 00:31:23;;;;;;;4.75;1.50;;;21.90;56.80;;;;;;5007782;28;20104;-70
2022/03/26 00:33:51;;;;;;;6.35;1.45;;;21.90;56.80;;;;;;5009397;28;20403;-70
2022/03/26 00:36:18;;;;;;;4.90;1.40;;;21.90;56.80;;;;;;5008355;28;20073;-70
2022/03/26 00:38:45;;;;;;;6.47;1.27;;;21.80;56.80;;;;;;5004889;28;20064;-70
2022/03/26 00:41:11;;;;;;;3.47;1.63;;;21.80;56.90;;;;;;5009948;28;20014;-70
2022/03/26 00:43:38;;;;;;;5.90;1.33;;;21.80;56.90;;;;;;5008279;28;20017;-69
2022/03/26 00:46:04;;;;;;;4.55;1.30;;;21.80;57.00;;;;;;5010096;28;20045;-70
2022/03/26 00:48:31;;;;;;;7.10;1.60;;;21.80;57.10;;;;;;5008069;28;20520;-69
2022/03/26 00:50:57;;;;;;;7.95;2.03;;;21.80;57.20;;;;;;5007298;28;20022;-70
2022/03/26 00:53:24;;;;;;;6.20;1.23;;;21.70;57.10;;;;;;5005784;28;20034;-69
2022/03/26 00:55:50;;;;;;;7.28;2.03;;;21.70;57.10;;;;;;5007165;28;20064;-69
2022/03/26 00:58:17;;;;;;;2.70;1.10;;;21.70;57.10;;;;;;5007153;28;20041;-70
2022/03/26 01:00:43;;;;;;;3.30;0.90;;;21.70;57.20;;;;;;5005151;28;20098;-70
2022/03/26 01:03:10;;;;;;;5.78;1.52;;;21.70;57.20;;;;;;5009563;28;20018;-70
2022/03/26 01:05:38;;;;;;;3.25;1.50;;;21.70;57.30;;;;;;5008844;28;20079;-70
2022/03/26 01:08:05;;;;;;;4.00;1.80;;;21.70;57.40;;;;;;5010954;28;20377;-70
2022/03/26 01:10:31;;;;;;;7.85;1.10;;;21.70;57.40;;;;;;5005544;28;20022;-70
2022/03/26 01:12:58;;;;;;;4.82;1.30;;;21.70;57.60;;;;;;5008593;28;20013;-69
2022/03/26 01:15:25;;;;;;;12.95;2.15;;;21.60;57.60;;;;;;5008104;28;20053;-70
2022/03/26 01:17:52;;;;;;;6.68;1.40;;;21.60;57.60;;;;;;5007338;28;20493;-69
2022/03/26 01:20:18;;;;;;;4.65;1.30;;;21.60;57.70;;;;;;5009319;28;20034;-69
2022/03/26 01:22:45;;;;;;;3.58;1.45;;;21.60;57.60;;;;;;5008210;28;20481;-69
2022/03/26 01:25:12;;;;;;;4.25;1.40;;;21.60;57.70;;;;;;5006298;28;20413;-69
2022/03/26 01:27:38;;;;;;;6.63;1.20;;;21.60;57.70;;;;;;5005991;28;20448;-69
2022/03/26 01:30:06;;;;;;;6.32;1.92;;;21.60;57.80;;;;;;5009016;28;20014;-69
2022/03/26 01:32:33;;;;;;;12.90;2.40;;;21.50;57.80;;;;;;5010808;28;20072;-69
2022/03/26 01:34:59;;;;;;;2.83;1.27;;;21.50;57.80;;;;;;5007776;28;20109;-69
2022/03/26 01:37:26;;;;;;;5.15;1.13;;;21.50;57.90;;;;;;5009033;28;20041;-69
2022/03/26 01:39:52;;;;;;;5.05;1.83;;;21.50;57.90;;;;;;5006297;28;20504;-70
2022/03/26 01:42:19;;;;;;;2.47;0.90;;;21.50;57.90;;;;;;5008788;28;20362;-70
2022/03/26 01:44:46;;;;;;;7.50;1.55;;;21.50;58.00;;;;;;5006543;28;20053;-70
2022/03/26 01:47:13;;;;;;;4.57;1.38;;;21.50;58.00;;;;;;5007542;28;20018;-70
2022/03/26 01:49:39;;;;;;;5.88;1.33;;;21.50;58.70;;;;;;5008147;28;20388;-70
2022/03/26 01:52:10;;;;;;;9.68;2.13;;;21.50;58.10;;;;;;5007756;28;20049;-70
2022/03/26 01:54:39;;;;;;;8.15;1.48;;;21.50;58.10;;;;;;5008070;28;20455;-69
2022/03/26 01:57:10;;;;;;;4.63;1.65;;;21.50;58.20;;;;;;5005578;28;20509;-70
2022/03/26 01:59:38;;;;;;;6.40;1.10;;;21.50;58.30;;;;;;5009250;28;20100;-70
2022/03/26 02:02:06;;;;;;;9.05;2.25;;;21.50;58.30;;;;;;4998698;28;20018;-70
2022/03/26 02:04:35;;;;;;;5.45;1.75;;;21.40;58.30;;;;;;5001785;28;20021;-70
2022/03/26 02:07:04;;;;;;;3.30;1.00;;;21.40;58.40;;;;;;5009677;28;20029;-70
2022/03/26 02:09:35;;;;;;;5.40;1.50;;;21.40;58.40;;;;;;5004298;28;20018;-69
2022/03/26 02:12:21;;;;;;;9.00;1.65;;;21.40;58.40;;;;;;5009597;28;20541;-70
2022/03/26 02:14:47;;;;;;;8.80;2.33;;;21.40;58.60;;;;;;5005805;28;20014;-70
2022/03/26 02:17:14;;;;;;;7.25;1.13;;;21.40;58.70;;;;;;5005674;28;20026;-69
2022/03/26 02:19:40;;;;;;;4.57;1.45;;;21.30;58.70;;;;;;5009269;28;20045;-70
2022/03/26 02:22:07;;;;;;;4.88;0.90;;;21.30;58.80;;;;;;5007849;28;20025;-69
2022/03/26 02:24:34;;;;;;;5.43;1.77;;;21.30;58.80;;;;;;5008354;28;20022;-69
2022/03/26 02:27:00;;;;;;;7.45;1.35;;;21.30;58.80;;;;;;5005299;28;20033;-70
2022/03/26 02:29:28;;;;;;;8.05;1.58;;;21.30;58.80;;;;;;5008759;28;20499;-70
2022/03/26 02:31:54;;;;;;;3.85;1.05;;;21.30;58.70;;;;;;5004293;28;20033;-69
2022/03/26 02:34:21;;;;;;;7.75;1.40;;;21.30;58.70;;;;;;5008727;28;20033;-70
2022/03/26 02:36:48;;;;;;;4.57;1.95;;;21.30;58.70;;;;;;5008030;28;20014;-69
2022/03/26 02:39:14;;;;;;;4.63;1.40;;;21.30;58.60;;;;;;5007742;28;20034;-69
2022/03/26 02:41:41;;;;;;;3.60;1.02;;;21.30;58.60;;;;;;5009350;28;20021;-69
2022/03/26 02:44:07;;;;;;;4.63;1.45;;;21.30;58.70;;;;;;5004607;28;20018;-69
2022/03/26 02:46:37;;;;;;;9.27;1.58;;;21.20;58.70;;;;;;5008469;28;20100;-70
2022/03/26 02:49:04;;;;;;;5.00;0.95;;;21.30;58.90;;;;;;5003867;28;20026;-69
2022/03/26 02:51:30;;;;;;;5.35;1.67;;;21.20;58.90;;;;;;5007545;28;20477;-69
2022/03/26 02:53:57;;;;;;;5.57;1.20;;;21.20;58.90;;;;;;5007804;28;20048;-70
2022/03/26 02:56:23;;;;;;;7.60;0.95;;;21.20;59.00;;;;;;5005497;28;20156;-70
2022/03/26 02:58:50;;;;;;;4.82;1.27;;;21.20;59.00;;;;;;5006383;28;20092;-70
2022/03/26 03:01:17;;;;;;;8.07;1.48;;;21.20;59.00;;;;;;5007428;28;20501;-69
2022/03/26 03:03:43;;;;;;;6.07;1.20;;;21.20;59.00;;;;;;5004727;28;20878;-69
2022/03/26 03:06:10;;;;;;;2.95;1.02;;;21.20;59.00;;;;;;5007056;28;20493;-69
2022/03/26 03:08:37;;;;;;;3.38;1.00;;;21.20;59.00;;;;;;5007415;28;20448;-69
2022/03/26 03:11:03;;;;;;;3.17;1.33;;;21.20;59.10;;;;;;5006688;28;20049;-69
2022/03/26 03:13:30;;;;;;;3.40;1.45;;;21.10;59.10;;;;;;5007601;28;20140;-69
2022/03/26 03:15:58;;;;;;;3.08;1.20;;;21.10;59.20;;;;;;5007856;28;20018;-69
2022/03/26 03:18:24;;;;;;;3.63;1.38;;;21.10;59.30;;;;;;5004811;28;20041;-69
2022/03/26 03:20:51;;;;;;;5.15;1.17;;;21.10;59.40;;;;;;5004528;28;20126;-69
2022/03/26 03:23:18;;;;;;;10.90;1.73;;;21.10;59.60;;;;;;5005198;28;20505;-70
2022/03/26 03:25:45;;;;;;;6.63;1.70;;;21.10;59.70;;;;;;5007406;28;20438;-70
2022/03/26 03:28:12;;;;;;;8.00;1.45;;;21.10;59.90;;;;;;5005924;28;20042;-70
2022/03/26 03:30:38;;;;;;;7.15;1.83;;;21.00;59.80;;;;;;5007899;28;20018;-70
2022/03/26 03:33:05;;;;;;;6.43;1.42;;;21.10;59.90;;;;;;5003896;28;20033;-70
2022/03/26 03:35:32;;;;;;;6.10;1.05;;;21.10;59.90;;;;;;5006537;28;20026;-70
2022/03/26 03:37:58;;;;;;;7.40;1.27;;;21.10;59.80;;;;;;5007684;28;20045;-70
2022/03/26 03:40:25;;;;;;;9.43;1.70;;;21.00;59.80;;;;;;5006813;28;20108;-69
2022/03/26 03:42:53;;;;;;;8.43;1.92;;;21.00;59.90;;;;;;5003845;28;20614;-69
2022/03/26 03:45:20;;;;;;;6.38;1.38;;;21.00;60.00;;;;;;5006641;28;20014;-70
2022/03/26 03:47:46;;;;;;;8.60;2.22;;;21.00;60.10;;;;;;5006225;28;20077;-69
2022/03/26 03:50:13;;;;;;;5.97;1.02;;;21.00;60.20;;;;;;5005076;28;20027;-69
2022/03/26 03:52:39;;;;;;;5.43;1.77;;;21.00;60.20;;;;;;5003785;28;20014;-69
2022/03/26 03:55:07;;;;;;;3.75;1.92;;;21.00;60.30;;;;;;5017410;28;20462;-69
2022/03/26 03:57:34;;;;;;;14.25;1.98;;;20.90;60.40;;;;;;5004184;28;20096;-70
2022/03/26 04:00:01;;;;;;;18.10;2.47;;;20.90;60.30;;;;;;5007386;28;20018;-69
2022/03/26 04:02:27;;;;;;;7.30;2.67;;;21.00;60.50;;;;;;5006000;28;20112;-70
2022/03/26 04:04:54;;;;;;;5.60;1.63;;;20.90;60.40;;;;;;5005475;28;20068;-70
2022/03/26 04:07:20;;;;;;;8.25;1.83;;;20.90;60.50;;;;;;5007249;28;20081;-70
2022/03/26 04:09:47;;;;;;;9.48;2.20;;;20.90;60.60;;;;;;5006504;28;20014;-70
2022/03/26 04:12:13;;;;;;;10.38;1.80;;;20.90;60.70;;;;;;5007703;28;20014;-69
2022/03/26 04:14:43;;;;;;;7.25;1.80;;;20.90;60.80;;;;;;5002329;28;20022;-70
2022/03/26 04:17:11;;;;;;;18.33;3.45;;;20.80;60.80;;;;;;5006324;28;20448;-69
2022/03/26 04:19:37;;;;;;;30.38;14.40;;;20.80;60.80;;;;;;5005034;28;20014;-69
2022/03/26 04:22:09;;;;;;;9.13;4.38;;;20.80;60.80;;;;;;5004417;28;20492;-70
2022/03/26 04:24:36;;;;;;;11.45;3.45;;;20.90;60.80;;;;;;5019881;28;20133;-69
2022/03/26 04:27:04;;;;;;;25.90;2.38;;;20.80;61.30;;;;;;5007594;28;20814;-70
2022/03/26 04:29:30;;;;;;;22.65;10.60;;;20.80;61.60;;;;;;5007120;28;20029;-69
2022/03/26 04:31:57;;;;;;;18.80;13.88;;;20.80;61.50;;;;;;5008023;28;20032;-70
2022/03/26 04:34:24;;;;;;;15.98;9.88;;;20.70;61.40;;;;;;5011319;28;20025;-70
2022/03/26 04:36:50;;;;;;;16.13;6.32;;;20.70;61.40;;;;;;5006907;28;20385;-70
2022/03/26 04:39:17;;;;;;;12.02;4.93;;;20.80;61.30;;;;;;5008112;28;20475;-70
2022/03/26 04:41:43;;;;;;;3.75;1.88;;;20.70;61.20;;;;;;5006448;28;20017;-71
2022/03/26 04:44:11;;;;;;;6.75;1.70;;;20.80;61.20;;;;;;5007402;28;20060;-71
2022/03/26 04:46:39;;;;;;;15.88;2.17;;;20.80;61.30;;;;;;5008618;28;20038;-69
2022/03/26 04:49:05;;;;;;;8.85;2.20;;;20.80;61.40;;;;;;5005612;28;20020;-69
2022/03/26 04:51:32;;;;;;;8.00;1.60;;;20.80;61.60;;;;;;5007544;28;20120;-70
2022/03/26 04:53:58;;;;;;;10.45;4.22;;;20.80;61.70;;;;;;5006919;28;20112;-69
2022/03/26 04:56:25;;;;;;;21.42;10.32;;;20.70;61.70;;;;;;5009358;28;20045;-69
2022/03/26 04:58:53;;;;;;;13.82;4.95;;;20.70;61.80;;;;;;5006720;28;20042;-70
2022/03/26 05:01:20;;;;;;;10.27;3.15;;;20.70;62.00;;;;;;5008351;28;20030;-70
2022/03/26 05:03:48;;;;;;;9.50;3.70;;;20.70;62.20;;;;;;5006966;28;20026;-71
2022/03/26 05:06:15;;;;;;;10.15;2.10;;;20.70;62.20;;;;;;5022880;28;20037;-70
2022/03/26 05:08:42;;;;;;;5.72;1.67;;;20.70;62.20;;;;;;5006293;28;20022;-71
2022/03/26 05:11:09;;;;;;;17.25;2.10;;;20.70;62.20;;;;;;5005878;28;20101;-71
2022/03/26 05:13:37;;;;;;;7.30;1.83;;;20.70;62.30;;;;;;5008669;28;21509;-71
2022/03/26 05:16:04;;;;;;;8.50;1.77;;;20.70;62.20;;;;;;5005583;28;20121;-72
2022/03/26 05:18:30;;;;;;;9.23;1.48;;;20.70;62.30;;;;;;5007934;28;20069;-71
2022/03/26 05:20:57;;;;;;;17.20;2.45;;;20.70;62.30;;;;;;5007067;28;20429;-70
2022/03/26 05:23:26;;;;;;;20.98;12.30;;;20.70;62.40;;;;;;5007269;28;20552;-69
2022/03/26 05:25:53;;;;;;;18.52;9.32;;;20.70;62.40;;;;;;5005149;28;20022;-69
2022/03/26 05:28:20;;;;;;;12.80;5.57;;;20.70;62.40;;;;;;5004834;28;20095;-71
2022/03/26 05:30:50;;;;;;;6.10;2.95;;;20.70;62.50;;;;;;5006557;28;20026;-71
2022/03/26 05:33:18;;;;;;;6.50;2.47;;;20.60;62.40;;;;;;5005449;28;20029;-70
2022/03/26 05:35:45;;;;;;;9.57;6.03;;;20.70;62.50;;;;;;5007075;28;20114;-70
2022/03/26 05:38:11;;;;;;;9.55;3.65;;;20.70;62.60;;;;;;5006778;28;20076;-70
2022/03/26 05:40:38;;;;;;;10.88;7.05;;;20.60;62.70;;;;;;5006129;28;20022;-69
2022/03/26 05:43:05;;;;;;;9.98;4.00;;;20.70;62.70;;;;;;5006468;28;20129;-69
2022/03/26 05:45:31;;;;;;;6.10;3.20;;;20.70;62.80;;;;;;5006878;28;20021;-70
2022/03/26 05:48:02;;;;;;;5.00;2.28;;;20.70;62.80;;;;;;5007318;28;20018;-69
2022/03/26 05:50:29;;;;;;;6.50;2.10;;;20.70;62.90;;;;;;5006849;28;20032;-68
2022/03/26 05:52:56;;;;;;;10.35;2.75;;;20.70;63.00;;;;;;5005538;28;20481;-69
2022/03/26 05:55:23;;;;;;;8.85;1.35;;;20.70;63.10;;;;;;5007402;28;20059;-68
2022/03/26 05:57:50;;;;;;;5.57;1.50;;;20.70;63.10;;;;;;5005070;28;20065;-69
2022/03/26 06:00:16;;;;;;;229.88;26.35;;;20.70;63.20;;;;;;5005344;28;21107;-70
2022/03/26 06:02:43;;;;;;;213.52;24.27;;;20.80;63.30;;;;;;5004449;28;20464;-71
2022/03/26 06:05:10;;;;;;;123.90;17.08;;;20.70;63.30;;;;;;5007224;28;20026;-70
2022/03/26 06:07:36;;;;;;;74.60;8.15;;;20.80;63.50;;;;;;5004870;28;20018;-71
2022/03/26 06:10:03;;;;;;;87.57;12.20;;;20.70;63.60;;;;;;5006332;28;20069;-71
2022/03/26 06:12:29;;;;;;;71.22;7.47;;;20.70;63.90;;;;;;5005314;28;20022;-70
2022/03/26 06:14:56;;;;;;;55.42;5.32;;;20.80;64.90;;;;;;5005419;28;20010;-70
2022/03/26 06:17:23;;;;;;;35.70;4.43;;;20.80;66.40;;;;;;5006580;28;20513;-70
2022/03/26 06:19:50;;;;;;;34.60;4.18;;;20.80;67.00;;;;;;5004537;28;20031;-71
2022/03/26 06:22:16;;;;;;;22.00;7.57;;;20.80;67.30;;;;;;5006278;28;20072;-70
2022/03/26 06:24:43;;;;;;;29.48;11.00;;;20.90;67.00;;;;;;5005013;28;20064;-71
2022/03/26 06:27:09;;;;;;;52.13;10.05;;;20.90;66.50;;;;;;5006546;28;20030;-70
2022/03/26 06:29:39;;;;;;;37.08;7.55;;;20.90;66.20;;;;;;5019571;28;20393;-71
2022/03/26 06:32:06;;;;;;;15.63;3.90;;;20.90;66.30;;;;;;5007945;28;20088;-70
2022/03/26 06:34:33;;;;;;;16.58;3.05;;;21.00;65.90;;;;;;5007887;28;20508;-69
2022/03/26 06:37:00;;;;;;;12.68;3.20;;;21.00;65.50;;;;;;5003914;28;20022;-68
2022/03/26 06:39:27;;;;;;;10.98;2.38;;;21.00;65.40;;;;;;5008920;28;20045;-68
2022/03/26 06:41:53;;;;;;;5.22;1.83;;;21.00;65.30;;;;;;5003431;28;20022;-69
2022/03/26 06:44:20;;;;;;;3.05;1.45;;;21.00;65.20;;;;;;5008901;28;20018;-68
2022/03/26 06:46:47;;;;;;;8.88;1.73;;;21.00;65.00;;;;;;5007654;28;20013;-68
2022/03/26 06:49:13;;;;;;;15.13;5.13;;;21.00;65.20;;;;;;5008812;28;20010;-69
2022/03/26 06:51:40;;;;;;;18.75;4.90;;;21.10;65.90;;;;;;5009043;28;20010;-68
2022/03/26 06:54:06;;;;;;;24.67;4.05;;;21.10;65.20;;;;;;5008407;28;20037;-68
2022/03/26 06:56:34;;;;;;;28.05;3.90;;;21.20;65.40;;;;;;5008748;28;20025;-69
2022/03/26 06:59:01;;;;;;;6.15;2.30;;;21.20;65.40;;;;;;5007709;28;20168;-69
2022/03/26 07:01:27;;;;;;;66.10;4.45;;;21.20;65.30;;;;;;5009525;28;20103;-68
2022/03/26 07:03:54;;;;;;;20.48;4.13;;;21.30;65.10;;;;;;5007968;28;20093;-69
2022/03/26 07:06:20;;;;;;;30.92;9.40;;;21.30;64.70;;;;;;5009394;28;20022;-69
2022/03/26 07:08:47;;;;;;;25.13;6.50;;;21.30;64.50;;;;;;5008614;28;20072;-68
2022/03/26 07:11:13;;;;;;;16.80;4.13;;;21.30;64.30;;;;;;5005461;28;20386;-69
2022/03/26 07:13:40;;;;;;;17.05;2.72;;;21.40;64.20;;;;;;5004007;28;20025;-69
2022/03/26 07:16:07;;;;;;;25.52;4.97;;;21.40;64.30;;;;;;5002348;28;20028;-68
2022/03/26 07:18:34;;;;;;;25.52;4.82;;;21.40;64.70;;;;;;5003881;28;20032;-69
2022/03/26 07:21:00;;;;;;;11.35;2.03;;;21.50;64.60;;;;;;5005918;28;20092;-71
2022/03/26 07:23:27;;;;;;;11.15;2.22;;;21.50;64.40;;;;;;5006601;28;20022;-68
2022/03/26 07:25:54;;;;;;;6.13;1.73;;;21.50;64.30;;;;;;5005809;28;20018;-68
2022/03/26 07:28:21;;;;;;;8.05;1.83;;;21.50;64.20;;;;;;5005776;28;20018;-69
2022/03/26 07:30:48;;;;;;;8.38;1.83;;;21.60;64.20;;;;;;5006863;28;20045;-68
2022/03/26 07:33:15;;;;;;;10.25;1.98;;;21.60;64.10;;;;;;5002104;28;20034;-69
2022/03/26 07:35:42;;;;;;;7.88;2.00;;;21.60;63.90;;;;;;5005019;28;20117;-70
2022/03/26 07:38:08;;;;;;;6.57;1.27;;;21.70;63.80;;;;;;5002795;28;20516;-69
2022/03/26 07:40:35;;;;;;;7.75;2.00;;;21.70;63.80;;;;;;5004161;28;20037;-70
2022/03/26 07:43:02;;;;;;;10.93;1.73;;;21.70;63.80;;;;;;5003522;28;20106;-70
2022/03/26 07:45:29;;;;;;;41.40;5.03;;;21.80;63.70;;;;;;5002946;28;20041;-69
2022/03/26 07:48:35;;;;;;;25.73;3.38;;;21.80;63.60;;;;;;5004435;28;20054;-69
2022/03/26 07:51:41;;;;;;;12.02;1.67;;;21.80;63.50;;;;;;5005392;28;20033;-70
2022/03/26 07:54:47;;;;;;;9.48;2.10;;;21.90;63.40;;;;;;5005697;28;20544;-69
2022/03/26 07:57:53;;;;;;;19.33;2.55;;;21.90;63.20;;;;;;5007449;28;20034;-69
2022/03/26 08:00:21;;;;;;;11.82;2.42;;;22.00;63.10;;;;;;5006509;28;20028;-69
2022/03/26 08:02:47;;;;;;;15.85;2.20;;;22.00;63.00;;;;;;5009480;28;20026;-70
2022/03/26 08:05:14;;;;;;;6.18;1.83;;;22.00;62.80;;;;;;5009263;28;20018;-69
2022/03/26 08:07:40;;;;;;;12.65;2.22;;;22.10;62.70;;;;;;5011117;28;20060;-69
2022/03/26 08:10:07;;;;;;;5.97;1.58;;;22.10;62.30;;;;;;5010674;28;20476;-69
2022/03/26 08:12:34;;;;;;;6.45;1.80;;;22.10;62.00;;;;;;5009005;28;20026;-69
2022/03/26 08:15:00;;;;;;;9.20;2.15;;;22.10;61.80;;;;;;5012493;28;20018;-70
2022/03/26 08:17:30;;;;;;;3.58;1.38;;;22.20;61.60;;;;;;5008420;28;20588;-70
2022/03/26 08:19:56;;;;;;;10.50;1.92;;;22.20;61.60;;;;;;5009950;28;20017;-70
2022/03/26 08:22:23;;;;;;;8.90;1.77;;;22.20;61.50;;;;;;5010439;28;20125;-70
2022/03/26 08:24:49;;;;;;;9.75;2.10;;;22.20;61.60;;;;;;5009196;28;20010;-71
2022/03/26 08:27:16;;;;;;;10.75;1.92;;;22.30;61.70;;;;;;5008458;28;20037;-70
2022/03/26 08:29:42;;;;;;;19.50;3.20;;;22.30;61.70;;;;;;5008500;28;20037;-69
2022/03/26 08:32:09;;;;;;;15.27;3.22;;;22.30;61.70;;;;;;5008286;28;20507;-69
2022/03/26 08:34:35;;;;;;;13.57;4.00;;;22.40;62.40;;;;;;5008592;28;20498;-69
2022/03/26 08:37:02;;;;;;;11.10;2.30;;;22.50;62.40;;;;;;5008372;28;20045;-70
2022/03/26 08:39:28;;;;;;;23.52;2.60;;;22.50;61.70;;;;;;5008622;28;20071;-70
2022/03/26 08:41:55;;;;;;;7.90;1.85;;;22.60;61.40;;;;;;5007019;28;20022;-69
2022/03/26 08:44:21;;;;;;;10.40;1.73;;;22.60;61.20;;;;;;5007484;28;20054;-70
2022/03/26 08:46:48;;;;;;;9.02;3.08;;;22.70;60.70;;;;;;5008263;28;20022;-68
2022/03/26 08:49:15;;;;;;;8.25;1.92;;;22.70;60.40;;;;;;5008934;28;20359;-68
2022/03/26 08:51:41;;;;;;;5.65;1.40;;;22.70;60.30;;;;;;5008286;28;20033;-69
2022/03/26 08:54:08;;;;;;;8.48;1.77;;;22.70;60.20;;;;;;5008517;28;20041;-67
2022/03/26 08:56:35;;;;;;;4.13;1.52;;;22.80;60.20;;;;;;5006266;28;20029;-68
2022/03/26 08:59:01;;;;;;;6.40;1.73;;;22.80;60.00;;;;;;5009079;28;20072;-69
2022/03/26 09:01:28;;;;;;;10.25;1.88;;;22.90;60.00;;;;;;5009677;28;20030;-71
2022/03/26 09:03:54;;;;;;;10.23;2.33;;;22.90;59.80;;;;;;5005747;28;20034;-71
2022/03/26 09:06:21;;;;;;;5.13;1.35;;;23.00;59.70;;;;;;5008263;28;20022;-71
2022/03/26 09:08:47;;;;;;;8.35;1.73;;;23.00;59.70;;;;;;5006332;28;20025;-71
2022/03/26 09:11:14;;;;;;;8.35;1.98;;;23.00;59.80;;;;;;5004105;28;20030;-70
2022/03/26 09:13:40;;;;;;;12.95;1.70;;;23.10;59.80;;;;;;5001137;28;20029;-71
2022/03/26 09:16:07;;;;;;;9.25;2.75;;;23.10;59.80;;;;;;5005501;28;20018;-71
2022/03/26 09:18:34;;;;;;;9.20;2.75;;;23.10;59.70;;;;;;5006881;28;20461;-70
2022/03/26 09:21:00;;;;;;;21.95;2.35;;;23.20;59.70;;;;;;5009023;28;20082;-71
2022/03/26 09:23:27;;;;;;;8.30;3.45;;;23.20;59.70;;;;;;5006714;28;20053;-72
2022/03/26 09:25:53;;;;;;;5.03;2.45;;;23.30;59.70;;;;;;5009284;28;20751;-71
2022/03/26 09:28:20;;;;;;;8.10;2.45;;;23.30;59.50;;;;;;5008709;28;20137;-70
2022/03/26 09:30:46;;;;;;;12.88;2.15;;;23.30;59.50;;;;;;5008328;28;21436;-70
2022/03/26 09:33:13;;;;;;;14.48;3.00;;;23.40;59.30;;;;;;5006216;28;20030;-72
2022/03/26 09:35:39;;;;;;;17.85;3.08;;;23.40;59.20;;;;;;5006065;28;20525;-72
2022/03/26 09:38:06;;;;;;;7.22;2.63;;;23.50;59.30;;;;;;5005551;28;20436;-70
2022/03/26 09:40:33;;;;;;;6.50;2.22;;;23.50;59.20;;;;;;5007463;28;20022;-70
2022/03/26 09:43:01;;;;;;;7.93;1.80;;;23.60;59.00;;;;;;5006898;28;20025;-71
2022/03/26 09:45:27;;;;;;;8.82;1.77;;;23.60;58.80;;;;;;5004892;28;20476;-72
2022/03/26 09:47:54;;;;;;;9.82;2.42;;;23.70;58.70;;;;;;5004988;28;20042;-72
2022/03/26 09:50:21;;;;;;;7.38;2.00;;;23.70;58.50;;;;;;5008032;28;20383;-72
2022/03/26 09:52:50;;;;;;;5.82;1.77;;;23.80;58.40;;;;;;5008402;28;20083;-72
2022/03/26 09:55:21;;;;;;;8.57;1.80;;;23.80;58.00;;;;;;5008462;28;20117;-72
2022/03/26 09:57:49;;;;;;;8.55;2.90;;;23.90;57.90;;;;;;5009700;28;20038;-72
2022/03/26 10:00:16;;;;;;;9.07;2.03;;;23.90;57.80;;;;;;5007791;28;20482;-71
2022/03/26 10:02:42;;;;;;;5.68;2.00;;;24.00;57.80;;;;;;5008305;28;20025;-72
2022/03/26 10:05:12;;;;;;;2.65;1.63;;;24.10;57.60;;;;;;5007446;28;20157;-72
2022/03/26 10:07:39;;;;;;;21.10;3.95;;;24.10;57.40;;;;;;5009229;28;20805;-72
2022/03/26 10:10:07;;;;;;;19.83;2.20;;;24.10;57.30;;;;;;5004080;28;20046;-71
2022/03/26 10:12:34;;;;;;;13.50;1.92;;;24.20;57.40;;;;;;5007031;28;20022;-72
2022/03/26 10:15:04;;;;;;;7.93;2.17;;;24.30;57.20;;;;;;5008769;28;20091;-71
2022/03/26 10:17:36;;;;;;;9.25;2.67;;;24.30;57.20;;;;;;5007169;28;20098;-72
2022/03/26 10:20:05;;;;;;;6.95;2.00;;;24.40;57.10;;;;;;5008292;28;20089;-72
2022/03/26 10:22:48;;;;;;;6.03;2.70;;;24.50;56.90;;;;;;5006606;28;20018;-72
2022/03/26 10:25:17;;;;;;;17.38;3.67;;;24.60;56.80;;;;;;5007349;28;20033;-71
2022/03/26 10:27:49;;;;;;;11.98;2.88;;;24.60;56.40;;;;;;5008461;28;20079;-72
2022/03/26 10:33:22;;;;;;;10.50;2.25;;;24.70;56.20;;;;;;5009161;28;20036;-72
2022/03/26 10:35:53;;;;;;;14.75;3.70;;;24.80;56.00;;;;;;5008026;28;20075;-71
2022/03/26 10:38:20;;;;;;;7.50;2.65;;;24.90;56.00;;;;;;5006593;28;20034;-72
2022/03/26 10:40:46;;;;;;;9.27;2.42;;;24.90;55.50;;;;;;5006908;28;20100;-71
2022/03/26 10:43:14;;;;;;;10.75;2.30;;;25.00;55.40;;;;;;5007732;28;20579;-72
2022/03/26 10:45:55;;;;;;;9.75;1.80;;;25.10;55.30;;;;;;5008103;28;20369;-71
2022/03/26 10:48:27;;;;;;;9.00;2.20;;;25.10;54.90;;;;;;5004308;28;20029;-72
2022/03/26 10:51:15;;;;;;;25.10;3.05;;;25.20;54.80;;;;;;5007433;28;20084;-72
2022/03/26 10:53:57;;;;;;;30.75;3.55;;;25.20;54.60;;;;;;5008556;28;20033;-72
2022/03/26 10:56:25;;;;;;;6.78;1.48;;;25.30;54.60;;;;;;5007576;28;20045;-72
2022/03/26 10:58:52;;;;;;;7.07;1.90;;;25.30;54.20;;;;;;5005326;28;20038;-72
2022/03/26 11:01:18;;;;;;;6.57;1.30;;;25.40;54.00;;;;;;5007144;28;20017;-72
2022/03/26 11:03:48;;;;;;;6.35;1.92;;;25.40;53.50;;;;;;5008435;28;20145;-71
2022/03/26 11:06:16;;;;;;;5.82;1.50;;;25.40;53.30;;;;;;5006941;28;20021;-72
2022/03/26 11:08:47;;;;;;;17.40;2.88;;;25.50;53.20;;;;;;5007331;28;20022;-72
2022/03/26 11:11:14;;;;;;;17.48;3.10;;;25.50;52.90;;;;;;5007076;28;20096;-72
2022/03/26 11:13:49;;;;;;;7.53;1.98;;;25.60;53.30;;;;;;5006749;28;20028;-72
2022/03/26 11:16:23;;;;;;;6.38;1.33;;;25.60;53.30;;;;;;5004822;28;20018;-72
2022/03/26 11:19:17;;;;;;;20.57;3.27;;;25.70;52.80;;;;;;5007102;28;20389;-72
2022/03/26 11:21:56;;;;;;;4.38;1.63;;;25.80;52.60;;;;;;5006627;28;20782;-72
2022/03/26 11:24:44;;;;;;;4.05;1.70;;;25.80;52.30;;;;;;5006589;28;20528;-72
2022/03/26 11:27:38;;;;;;;38.70;4.53;;;25.90;52.00;;;;;;5004312;28;20528;-72
2022/03/26 11:30:19;;;;;;;8.25;1.70;;;25.90;51.90;;;;;;5007287;28;20465;-72
2022/03/26 11:32:49;;;;;;;8.10;1.70;;;26.00;51.90;;;;;;5005881;28;20140;-72
2022/03/26 11:35:17;;;;;;;7.07;1.63;;;26.00;51.90;;;;;;5006776;28;20123;-72
2022/03/26 11:38:12;;;;;;;12.30;1.80;;;26.10;51.80;;;;;;5004148;28;20029;-72
2022/03/26 11:40:46;;;;;;;13.90;2.20;;;26.20;51.70;;;;;;5004276;28;20037;-72
2022/03/26 11:43:19;;;;;;;5.45;2.05;;;26.20;51.60;;;;;;5005345;28;20079;-71
2022/03/26 11:52:12;;;;;;;17.17;2.40;;;26.40;51.10;;;;;;4965786;28;19906;-72
2022/03/26 11:54:40;;;;;;;22.27;3.70;;;26.40;50.60;;;;;;5007032;28;20761;-72
2022/03/26 11:57:21;;;;;;;18.58;3.30;;;26.50;50.50;;;;;;5004695;28;20033;-72
2022/03/26 11:59:48;;;;;;;12.65;3.10;;;26.50;50.60;;;;;;5006171;28;20025;-72
2022/03/26 12:02:34;;;;;;;17.63;2.95;;;26.60;50.50;;;;;;5006757;28;20019;-72
2022/03/26 12:08:19;;;;;;;9.25;3.42;;;26.70;50.10;;;;;;5007511;28;20079;-72
2022/03/26 12:10:47;;;;;;;9.65;3.60;;;26.70;49.80;;;;;;5005866;28;20370;-72
2022/03/26 12:13:23;;;;;;;16.55;2.53;;;26.80;49.90;;;;;;5005394;28;20071;-72
2022/03/26 12:16:06;;;;;;;11.65;2.95;;;26.80;49.70;;;;;;5005920;28;20088;-72
2022/03/26 12:18:52;;;;;;;17.77;3.30;;;26.90;49.80;;;;;;5002102;28;20033;-72
2022/03/26 12:22:10;;;;;;;26.48;3.88;;;26.90;49.70;;;;;;5005276;28;20507;-72
2022/03/26 12:25:18;;;;;;;15.10;2.83;;;27.00;49.60;;;;;;5004045;28;20076;-72
2022/03/26 12:28:25;;;;;;;9.95;2.53;;;27.00;49.60;;;;;;5003719;28;20021;-72
2022/03/26 12:30:57;;;;;;;11.30;2.20;;;27.10;49.70;;;;;;5006836;28;20389;-72
2022/03/26 12:33:25;;;;;;;8.98;2.10;;;27.10;49.60;;;;;;5007229;28;20392;-72
2022/03/26 12:35:54;;;;;;;5.45;2.33;;;27.20;49.30;;;;;;5000566;28;20076;-73
2022/03/26 12:38:22;;;;;;;32.97;3.03;;;27.20;49.10;;;;;;4998126;28;20041;-70
2022/03/26 12:40:53;;;;;;;37.60;5.72;;;27.20;49.40;;;;;;5002423;28;20026;-70
2022/03/26 12:43:21;;;;;;;35.80;11.15;;;27.20;49.70;;;;;;5003688;28;20018;-72
2022/03/26 12:45:49;;;;;;;24.55;6.72;;;27.20;50.50;;;;;;5007256;28;20025;-70
2022/03/26 12:48:16;;;;;;;18.90;3.75;;;27.10;50.30;;;;;;5006396;28;20044;-71
2022/03/26 12:50:45;;;;;;;11.43;2.53;;;27.10;50.30;;;;;;5008275;28;20006;-71
2022/03/26 12:53:16;;;;;;;8.38;2.53;;;27.10;50.40;;;;;;5004091;28;20021;-72
2022/03/26 12:55:53;;;;;;;10.93;4.55;;;27.00;50.50;;;;;;5005609;28;20065;-71
2022/03/26 13:01:09;;;;;;;82.15;18.83;;;27.00;50.20;;;;;;5006509;28;20076;-71
2022/03/26 13:03:36;;;;;;;34.63;10.13;;;27.00;50.20;;;;;;5004837;28;20029;-69
2022/03/26 13:06:11;;;;;;;19.13;5.75;;;27.00;50.40;;;;;;5003770;28;20064;-70
2022/03/26 13:08:38;;;;;;;11.95;3.90;;;26.90;50.20;;;;;;5006963;28;20021;-71